Time;durP1;ratioP1;P1;durP2;ratioP2;P2;SDS_P1;SDS_P2;PMS_P1;PMS_P2;Temp;Humidity;BMP_temperature;BMP_pressure;BME280_temperature;BME280_humidity;BME280_pressure;Samples;Min_cycle;Max_cycle;Signal;HPM_P1;HPM_P2
2023/06/04 00:00:08;;;;;;;8.93;1.70;;;;;;;11.79;54.71;100613.67;1501861;86;22217;-78
2023/06/04 00:02:34;;;;;;;5.07;1.57;;;;;;;11.80;55.20;100618.01;1490497;86;21434;-78
2023/06/04 00:05:01;;;;;;;7.67;1.80;;;;;;;11.81;55.09;100619.66;1494103;87;21419;-77
2023/06/04 00:07:27;;;;;;;5.93;1.63;;;;;;;11.82;54.58;100616.52;1496372;87;21510;-78
2023/06/04 00:09:53;;;;;;;3.70;1.50;;;;;;;11.83;54.84;100616.87;1487584;87;21338;-78
2023/06/04 00:12:20;;;;;;;3.03;1.60;;;;;;;11.85;55.05;100614.88;1490790;87;21381;-77
2023/06/04 00:14:46;;;;;;;3.27;1.40;;;;;;;11.84;55.04;100611.91;1496159;87;21433;-78
2023/06/04 00:17:12;;;;;;;4.83;1.90;;;;;;;11.81;54.96;100611.70;1495818;87;22202;-77
2023/06/04 00:19:40;;;;;;;5.10;1.30;;;;;;;11.81;54.93;100613.53;1495617;87;21840;-77
2023/06/04 00:22:07;;;;;;;5.37;1.83;;;;;;;11.78;54.69;100611.19;1499402;87;22378;-79
2023/06/04 00:24:39;;;;;;;5.40;2.10;;;;;;;11.75;55.18;100611.81;1496190;87;21507;-79
2023/06/04 00:27:08;;;;;;;6.00;1.57;;;;;;;11.72;55.06;100608.14;1498709;87;22327;-79
2023/06/04 00:29:34;;;;;;;3.27;2.17;;;;;;;11.67;55.08;100605.10;1480325;87;22232;-79
2023/06/04 00:32:00;;;;;;;5.03;1.77;;;;;;;11.65;55.38;100603.58;1489247;87;21374;-79
2023/06/04 00:34:27;;;;;;;4.30;1.87;;;;;;;11.62;55.14;100606.53;1500369;87;21358;-79
2023/06/04 00:36:53;;;;;;;4.00;1.43;;;;;;;11.61;54.88;100605.70;1494061;87;21381;-79
2023/06/04 00:39:20;;;;;;;4.50;1.80;;;;;;;11.57;55.11;100603.02;1501903;86;21411;-79
2023/06/04 00:41:46;;;;;;;4.67;2.17;;;;;;;11.55;54.84;100599.69;1495835;86;22260;-80
2023/06/04 00:44:13;;;;;;;5.73;1.47;;;;;;;11.55;55.02;100595.70;1497930;87;21572;-78
2023/06/04 00:46:40;;;;;;;8.97;2.80;;;;;;;11.55;54.70;100594.38;1501040;87;22284;-79
2023/06/04 00:49:06;;;;;;;7.13;2.10;;;;;;;11.53;54.77;100595.84;1489982;87;21366;-79
2023/06/04 00:51:33;;;;;;;5.73;1.30;;;;;;;11.56;54.47;100602.66;1486280;87;21520;-81
2023/06/04 00:54:01;;;;;;;5.70;1.87;;;;;;;11.55;54.34;100595.70;1484184;87;21300;-80
2023/06/04 00:56:28;;;;;;;2.97;1.40;;;;;;;11.54;54.41;100588.75;1497051;87;21389;-80
2023/06/04 00:58:54;;;;;;;4.43;1.83;;;;;;;11.52;54.44;100591.53;1488743;87;21433;-79
2023/06/04 01:01:40;;;;;;;7.57;1.80;;;;;;;11.52;54.52;100592.03;1487177;87;22275;-80
2023/06/04 01:04:12;;;;;;;2.97;1.50;;;;;;;11.53;54.18;100593.69;1494297;87;21396;-80
2023/06/04 01:06:46;;;;;;;7.63;1.93;;;;;;;11.53;54.03;100584.41;1497754;87;21448;-79
2023/06/04 01:09:14;;;;;;;7.43;2.10;;;;;;;11.52;54.01;100587.56;1493066;87;22260;-81
2023/06/04 01:11:40;;;;;;;6.87;1.70;;;;;;;11.51;54.13;100589.87;1495155;87;21337;-80
2023/06/04 01:14:09;;;;;;;7.43;1.60;;;;;;;11.51;53.80;100594.35;1493152;87;21358;-80
2023/06/04 01:17:02;;;;;;;6.20;1.70;;;;;;;11.53;53.79;100592.36;1492551;87;21528;-80
2023/06/04 01:19:37;;;;;;;1.53;1.10;;;;;;;11.53;53.61;100591.87;1495420;87;21539;-80
2023/06/04 01:22:08;;;;;;;2.63;1.40;;;;;;;11.51;53.42;100589.87;1480434;87;21425;-80
2023/06/04 01:24:37;;;;;;;2.40;1.33;;;;;;;11.51;53.42;100593.86;1492172;87;21572;-81
2023/06/04 01:27:06;;;;;;;3.90;1.87;;;;;;;11.51;53.56;100590.38;1488811;87;21455;-81
2023/06/04 01:29:32;;;;;;;3.73;1.53;;;;;;;11.47;53.57;100590.31;1488883;86;21255;-81
2023/06/04 01:32:00;;;;;;;3.93;1.80;;;;;;;11.44;54.03;100591.94;1475700;87;21957;-80
2023/06/04 01:34:26;;;;;;;4.07;1.60;;;;;;;11.39;53.84;100599.00;1489921;87;21468;-81
2023/06/04 01:36:52;;;;;;;6.47;1.40;;;;;;;11.36;53.76;100591.84;1498633;87;21315;-81
2023/06/04 01:39:18;;;;;;;4.10;1.43;;;;;;;11.32;53.97;100590.48;1491585;86;21352;-81
2023/06/04 01:41:44;;;;;;;6.67;2.20;;;;;;;11.27;54.12;100591.75;1487341;87;21440;-81
2023/06/04 01:44:11;;;;;;;5.50;2.00;;;;;;;11.26;53.95;100598.53;1495157;87;21424;-81
2023/06/04 01:46:37;;;;;;;3.63;2.00;;;;;;;11.24;54.23;100597.34;1489598;86;21573;-81
2023/06/04 01:49:05;;;;;;;7.30;2.20;;;;;;;11.25;54.32;100599.53;1496116;87;23109;-81
2023/06/04 01:51:32;;;;;;;3.30;2.07;;;;;;;11.23;54.67;100595.69;1484557;87;21418;-81
2023/06/04 01:53:58;;;;;;;7.07;1.33;;;;;;;11.24;54.53;100600.48;1494373;87;21432;-80
2023/06/04 01:56:26;;;;;;;5.03;1.63;;;;;;;11.19;54.71;100598.30;1477210;87;21500;-81
2023/06/04 01:58:52;;;;;;;10.10;1.60;;;;;;;11.16;54.90;100602.55;1491968;86;21323;-81
2023/06/04 02:01:19;;;;;;;4.30;1.87;;;;;;;11.16;54.34;100599.06;1494779;87;21321;-80
2023/06/04 02:03:47;;;;;;;2.93;1.40;;;;;;;11.16;54.59;100603.86;1488214;87;21329;-80
2023/06/04 02:06:13;;;;;;;7.57;2.13;;;;;;;11.17;54.49;100608.20;1495879;87;21410;-79
2023/06/04 02:08:41;;;;;;;7.47;1.60;;;;;;;11.17;54.25;100602.08;1470645;87;21426;-81
2023/06/04 02:11:07;;;;;;;8.70;2.33;;;;;;;11.14;54.10;100605.84;1496037;87;21543;-83
2023/06/04 02:13:35;;;;;;;5.97;1.57;;;;;;;11.14;54.40;100608.99;1490456;87;21404;-80
2023/06/04 02:16:03;;;;;;;5.20;1.83;;;;;;;11.12;54.32;100606.48;1475578;87;22320;-82
2023/06/04 02:18:29;;;;;;;2.43;1.40;;;;;;;11.09;54.28;100605.45;1488922;87;21447;-82
2023/06/04 02:20:58;;;;;;;8.50;1.90;;;;;;;11.07;54.53;100607.40;1492932;87;22225;-83
2023/06/04 02:23:24;;;;;;;1.90;1.43;;;;;;;11.05;54.68;100609.38;1487918;86;22667;-82
2023/06/04 02:25:50;;;;;;;5.67;1.57;;;;;;;11.03;54.58;100613.98;1493739;87;21469;-83
2023/06/04 02:28:17;;;;;;;7.83;1.73;;;;;;;11.02;54.97;100614.98;1491184;87;21403;-82
2023/06/04 02:30:48;;;;;;;4.00;2.53;;;;;;;11.00;54.95;100615.60;1492134;86;22483;-82
2023/06/04 02:33:15;;;;;;;4.43;1.23;;;;;;;11.00;54.79;100616.43;1492369;87;22437;-81
2023/06/04 02:35:41;;;;;;;2.73;1.60;;;;;;;10.95;54.87;100617.34;1493874;87;21433;-82
2023/06/04 02:38:07;;;;;;;9.50;2.63;;;;;;;10.90;55.03;100618.77;1493919;87;21417;-83
2023/06/04 02:40:33;;;;;;;4.07;1.37;;;;;;;10.87;55.12;100624.34;1483910;87;21441;-82
2023/06/04 02:43:00;;;;;;;4.90;1.90;;;;;;;10.85;55.68;100625.83;1476970;87;21389;-81
2023/06/04 02:45:26;;;;;;;6.43;1.60;;;;;;;10.83;55.55;100627.28;1483974;87;21528;-81
2023/06/04 02:47:52;;;;;;;3.67;1.37;;;;;;;10.81;55.50;100625.76;1494405;87;21558;-81
2023/06/04 02:50:19;;;;;;;3.03;1.40;;;;;;;10.79;55.61;100630.39;1502532;87;21299;-81
2023/06/04 02:52:45;;;;;;;5.33;1.80;;;;;;;10.77;55.52;100630.52;1498238;87;22335;-80
2023/06/04 02:55:12;;;;;;;3.90;2.00;;;;;;;10.75;55.84;100626.34;1474533;87;21345;-80
2023/06/04 02:57:44;;;;;;;2.53;1.70;;;;;;;10.72;56.14;100630.59;1485444;87;22283;-80
2023/06/04 03:00:12;;;;;;;;;;;;;;;10.71;56.37;100636.88;1499492;87;21418;-80
2023/06/04 03:02:45;;;;;;;4.50;1.63;;;;;;;10.67;57.18;100637.63;1489158;87;20296;-80
2023/06/04 03:05:14;;;;;;;3.07;1.90;;;;;;;10.66;56.42;100641.77;1495641;87;21463;-80
2023/06/04 03:07:44;;;;;;;4.13;2.00;;;;;;;10.64;56.54;100640.56;1489037;87;21388;-80
2023/06/04 03:10:13;;;;;;;13.10;2.02;;;;;;;10.64;56.53;100638.41;1496143;87;21494;-80
2023/06/04 03:12:39;;;;;;;4.07;1.87;;;;;;;10.61;56.66;100629.77;1498655;87;21493;-81
2023/06/04 03:15:07;;;;;;;3.17;1.50;;;;;;;10.61;56.90;100630.27;1477344;87;21366;-81
2023/06/04 03:17:34;;;;;;;4.60;1.30;;;;;;;10.60;56.91;100632.09;1491007;86;21366;-80
2023/06/04 03:20:00;;;;;;;5.17;1.80;;;;;;;10.59;56.97;100636.22;1481972;86;21404;-82
2023/06/04 03:22:26;;;;;;;4.63;1.60;;;;;;;10.62;56.91;100637.25;1491989;87;21396;-83
2023/06/04 03:24:53;;;;;;;6.70;2.00;;;;;;;10.63;57.49;100640.23;1479004;87;21476;-83
2023/06/04 03:27:19;;;;;;;4.00;2.43;;;;;;;10.64;57.05;100639.74;1492975;87;21568;-83
2023/06/04 03:29:46;;;;;;;7.23;1.37;;;;;;;10.65;57.27;100643.58;1493973;87;21337;-81
2023/06/04 03:32:12;;;;;;;8.03;2.00;;;;;;;10.67;57.63;100643.42;1493420;86;21219;-82
2023/06/04 03:34:39;;;;;;;8.00;1.70;;;;;;;10.70;57.48;100647.94;1491194;87;21314;-81
2023/06/04 03:37:05;;;;;;;4.07;1.60;;;;;;;10.75;58.36;100653.64;1477047;87;21352;-82
2023/06/04 03:39:33;;;;;;;4.77;1.93;;;;;;;10.80;58.38;100651.90;1500658;87;21300;-79
2023/06/04 03:41:59;;;;;;;8.30;1.80;;;;;;;10.83;57.68;100649.80;1490510;87;21365;-79
2023/06/04 03:44:25;;;;;;;3.40;1.47;;;;;;;10.84;57.96;100649.30;1492226;87;21396;-79
2023/06/04 03:46:52;;;;;;;7.07;1.67;;;;;;;10.87;57.58;100645.03;1504279;87;21396;-79
2023/06/04 03:49:19;;;;;;;3.50;1.73;;;;;;;10.92;57.95;100648.59;1487172;86;22386;-79
2023/06/04 03:51:45;;;;;;;3.83;1.87;;;;;;;10.94;58.11;100646.14;1493175;87;21389;-79
2023/06/04 03:54:12;;;;;;;5.10;2.30;;;;;;;11.01;57.78;100649.04;1489488;87;21307;-80
2023/06/04 03:56:38;;;;;;;4.27;1.70;;;;;;;11.07;57.74;100643.16;1480463;87;21617;-78
2023/06/04 03:59:04;;;;;;;8.77;2.00;;;;;;;11.13;57.66;100647.87;1496271;86;21299;-81
2023/06/04 04:01:31;;;;;;;3.70;1.80;;;;;;;11.20;57.98;100656.92;1489741;86;21491;-81
2023/06/04 04:03:57;;;;;;;8.77;1.73;;;;;;;11.26;57.77;100649.70;1491629;87;21461;-80
2023/06/04 04:06:23;;;;;;;4.10;1.80;;;;;;;11.32;57.57;100652.75;1491775;87;22424;-80
2023/06/04 04:08:49;;;;;;;3.57;2.10;;;;;;;11.39;57.90;100653.82;1492587;86;21323;-81
2023/06/04 04:11:16;;;;;;;3.03;1.53;;;;;;;11.46;57.58;100648.30;1497298;87;21351;-79
2023/06/04 04:13:45;;;;;;;6.30;2.17;;;;;;;11.54;57.86;100656.34;1492261;86;22253;-80
2023/06/04 04:16:12;;;;;;;6.87;1.43;;;;;;;11.61;56.50;100660.05;1498992;87;21552;-80
2023/06/04 04:18:38;;;;;;;8.47;1.90;;;;;;;11.70;56.86;100659.16;1488936;87;21345;-82
2023/06/04 04:21:05;;;;;;;6.83;3.00;;;;;;;11.79;56.58;100656.59;1491928;87;21403;-80
2023/06/04 04:23:31;;;;;;;7.00;1.90;;;;;;;11.88;56.66;100658.38;1498122;86;21308;-80
2023/06/04 04:26:02;;;;;;;6.67;2.90;;;;;;;11.96;56.56;100661.11;1484786;87;21411;-80
2023/06/04 04:28:29;;;;;;;5.53;1.85;;;;;;;12.09;56.09;100658.92;1489622;87;22144;-79
2023/06/04 04:30:56;;;;;;;5.40;1.53;;;;;;;12.17;55.70;100655.02;1492999;87;21359;-80
2023/06/04 04:33:24;;;;;;;5.90;3.20;;;;;;;12.30;55.54;100655.95;1472248;87;21234;-81
2023/06/04 04:35:59;;;;;;;2.93;1.70;;;;;;;12.42;54.90;100657.87;1496127;87;21484;-82
2023/06/04 04:38:23;;;;;;;3.00;1.70;;;;;;;12.54;55.45;100655.30;1494250;87;21515;-82
2023/06/04 04:40:48;;;;;;;4.20;1.83;;;;;;;12.65;54.76;100658.20;1500214;87;22334;-79
2023/06/04 04:43:15;;;;;;;5.93;2.40;;;;;;;12.77;54.83;100656.12;1486632;87;21323;-79
2023/06/04 04:45:41;;;;;;;3.80;1.73;;;;;;;12.87;54.54;100652.38;1491466;87;21536;-80
2023/06/04 04:48:07;;;;;;;6.07;1.80;;;;;;;12.99;53.73;100651.61;1476329;87;22282;-80
2023/06/04 04:50:33;;;;;;;6.47;1.70;;;;;;;13.09;53.41;100644.88;1486644;86;21345;-80
2023/06/04 04:52:59;;;;;;;7.53;1.43;;;;;;;13.22;53.01;100649.73;1497946;87;22371;-82
2023/06/04 04:55:25;;;;;;;5.30;1.90;;;;;;;13.32;52.99;100651.78;1492374;86;21552;-80
2023/06/04 04:57:52;;;;;;;6.23;2.20;;;;;;;13.42;53.08;100647.19;1496969;87;21650;-81
2023/06/04 05:00:19;;;;;;;4.33;1.70;;;;;;;13.53;52.96;100649.56;1492725;86;21263;-80
2023/06/04 05:02:46;;;;;;;5.20;1.40;;;;;;;13.66;52.61;100654.91;1492509;87;21352;-81
2023/06/04 05:05:12;;;;;;;4.67;1.73;;;;;;;13.77;52.18;100655.43;1495576;87;21522;-82
2023/06/04 05:07:38;;;;;;;12.80;2.70;;;;;;;13.85;50.98;100659.12;1495567;87;21432;-81
2023/06/04 05:10:06;;;;;;;7.30;2.63;;;;;;;13.97;51.57;100661.29;1500923;87;22959;-82
2023/06/04 05:12:32;;;;;;;5.80;2.27;;;;;;;14.09;51.19;100658.31;1491393;87;21514;-81
2023/06/04 05:14:58;;;;;;;6.00;2.10;;;;;;;14.21;51.30;100658.31;1470291;87;21389;-82
2023/06/04 05:17:29;;;;;;;4.37;3.00;;;;;;;14.33;51.55;100665.00;1495844;87;21485;-80
2023/06/04 05:19:52;;;;;;;8.43;1.60;;;;;;;14.47;51.31;100669.30;1472351;87;21389;-80
2023/06/04 05:22:18;;;;;;;9.03;2.30;;;;;;;14.59;50.82;100665.36;1491742;87;21417;-80
2023/06/04 05:24:45;;;;;;;7.37;2.07;;;;;;;14.68;49.55;100664.84;1490428;87;22238;-82
2023/06/04 05:27:11;;;;;;;9.77;1.90;;;;;;;14.80;49.91;100660.32;1478476;87;21389;-80
2023/06/04 05:29:37;;;;;;;4.07;2.23;;;;;;;14.91;50.00;100663.64;1492695;87;21433;-80
2023/06/04 05:32:04;;;;;;;8.77;1.70;;;;;;;15.05;49.96;100663.77;1499881;87;21270;-80
2023/06/04 05:34:30;;;;;;;8.60;1.90;;;;;;;15.20;49.41;100665.72;1498534;87;21440;-81
2023/06/04 05:36:57;;;;;;;14.97;1.93;;;;;;;15.31;48.19;100663.52;1500253;87;21352;-85
2023/06/04 05:39:24;;;;;;;3.67;2.13;;;;;;;15.42;48.62;100669.45;1492019;87;21307;-83
2023/06/04 05:41:50;;;;;;;6.97;2.30;;;;;;;15.54;48.40;100670.75;1492389;86;21388;-82
2023/06/04 05:44:16;;;;;;;3.43;1.70;;;;;;;15.64;47.88;100669.20;1484733;87;21358;-82
2023/06/04 05:46:42;;;;;;;5.17;1.80;;;;;;;15.74;47.21;100676.02;1487070;87;21617;-82
2023/06/04 05:49:08;;;;;;;4.37;1.80;;;;;;;15.87;47.78;100675.42;1489320;87;21278;-82
2023/06/04 05:51:35;;;;;;;5.43;2.93;;;;;;;16.01;47.69;100673.84;1492441;87;22357;-84
2023/06/04 05:54:02;;;;;;;8.03;3.07;;;;;;;16.11;46.47;100678.47;1485881;87;21341;-83
2023/06/04 05:56:28;;;;;;;6.47;2.57;;;;;;;16.21;46.67;100677.70;1477080;87;22231;-83
2023/06/04 05:58:55;;;;;;;6.20;2.10;;;;;;;16.31;46.26;100674.78;1493781;86;21338;-83
2023/06/04 06:01:21;;;;;;;3.63;2.00;;;;;;;16.42;46.17;100674.87;1497530;86;21322;-84
2023/06/04 06:03:48;;;;;;;16.30;3.17;;;;;;;16.53;45.26;100679.79;1497489;87;21337;-81
2023/06/04 06:06:14;;;;;;;13.03;3.10;;;;;;;16.64;46.18;100677.20;1503135;87;21498;-83
2023/06/04 06:08:40;;;;;;;12.27;2.80;;;;;;;16.78;44.40;100676.94;1490960;87;21522;-82
2023/06/04 06:11:07;;;;;;;7.47;2.70;;;;;;;16.95;45.29;100678.43;1494477;86;22225;-81
2023/06/04 06:13:33;;;;;;;5.10;2.10;;;;;;;17.06;45.02;100677.98;1493576;86;21329;-82
2023/06/04 06:15:59;;;;;;;5.97;2.20;;;;;;;17.16;45.56;100687.05;1493017;87;21316;-83
2023/06/04 06:18:25;;;;;;;10.93;4.27;;;;;;;17.29;44.80;100691.74;1500698;87;21293;-84
2023/06/04 06:20:52;;;;;;;8.47;2.07;;;;;;;17.33;44.87;100685.03;1488473;87;21373;-83
2023/06/04 06:23:21;;;;;;;3.40;1.67;;;;;;;17.36;44.44;100688.67;1499631;86;21469;-79
2023/06/04 06:25:46;;;;;;;11.53;2.50;;;;;;;17.37;44.57;100698.34;1507156;87;21389;-80
2023/06/04 06:28:12;;;;;;;3.10;1.73;;;;;;;17.49;44.68;100693.34;1491855;87;21441;-81
2023/06/04 06:30:38;;;;;;;5.13;2.20;;;;;;;17.58;44.02;100695.75;1493697;87;21358;-80
2023/06/04 06:33:04;;;;;;;8.70;2.10;;;;;;;17.69;44.13;100697.61;1492959;87;21536;-80
2023/06/04 06:35:30;;;;;;;12.03;2.33;;;;;;;17.76;43.14;100698.53;1487002;87;22014;-79
2023/06/04 06:37:56;;;;;;;19.77;3.10;;;;;;;17.87;44.02;100696.74;1489811;87;21321;-82
2023/06/04 06:40:23;;;;;;;6.60;1.93;;;;;;;17.96;42.48;100699.62;1481229;87;22282;-82
2023/06/04 06:42:52;;;;;;;3.97;2.20;;;;;;;18.08;42.87;100698.61;1499511;87;21488;-81
2023/06/04 06:45:19;;;;;;;7.80;2.00;;;;;;;18.18;43.37;100696.95;1495499;87;21412;-82
2023/06/04 06:47:46;;;;;;;4.80;2.50;;;;;;;18.27;42.59;100701.18;1492127;87;21525;-82
2023/06/04 06:50:12;;;;;;;6.10;2.10;;;;;;;18.39;42.75;100692.94;1489486;87;22195;-82
2023/06/04 06:52:38;;;;;;;9.07;2.00;;;;;;;18.46;42.57;100699.69;1501468;87;21432;-83
2023/06/04 06:55:05;;;;;;;7.33;2.20;;;;;;;18.57;41.74;100698.35;1493550;87;21410;-81
2023/06/04 06:57:35;;;;;;;9.83;1.80;;;;;;;18.61;41.81;100699.61;1496216;87;21359;-82
2023/06/04 07:00:01;;;;;;;7.70;2.00;;;;;;;18.59;41.39;100705.18;1495461;87;21463;-81
2023/06/04 07:02:28;;;;;;;5.57;2.10;;;;;;;18.68;41.98;100708.55;1493769;87;22253;-81
2023/06/04 07:04:55;;;;;;;12.13;2.50;;;;;;;18.71;41.68;100718.37;1491537;87;21241;-81
2023/06/04 07:07:21;;;;;;;8.73;2.53;;;;;;;18.83;41.99;100725.91;1492658;87;21577;-81
2023/06/04 07:09:47;;;;;;;12.40;2.40;;;;;;;18.96;41.63;100718.47;1472831;87;21817;-81
2023/06/04 07:12:17;;;;;;;7.15;1.98;;;;;;;19.09;41.38;100713.20;1495756;87;21477;-81
2023/06/04 07:14:43;;;;;;;4.03;1.97;;;;;;;19.20;41.83;100712.66;1488907;87;22350;-82
2023/06/04 07:17:09;;;;;;;7.20;2.10;;;;;;;19.35;41.49;100713.36;1476395;87;21931;-80
2023/06/04 07:19:36;;;;;;;9.83;2.47;;;;;;;19.55;41.90;100708.61;1478725;87;21359;-81
2023/06/04 07:22:02;;;;;;;5.73;2.53;;;;;;;19.74;41.42;100705.22;1493715;87;21293;-82
2023/06/04 07:24:28;;;;;;;4.70;2.02;;;;;;;19.79;40.67;100707.28;1494563;87;21793;-82
2023/06/04 07:26:55;;;;;;;6.00;2.37;;;;;;;19.87;40.82;100710.31;1476752;87;21359;-79
2023/06/04 07:29:21;;;;;;;56.02;4.05;;;;;;;19.95;40.65;100708.80;1493181;87;21343;-79
2023/06/04 07:31:47;;;;;;;6.58;2.22;;;;;;;20.09;41.11;100711.83;1482203;87;21433;-79
2023/06/04 07:34:13;;;;;;;3.90;2.52;;;;;;;20.19;41.06;100713.59;1486586;87;22352;-79
2023/06/04 07:36:40;;;;;;;7.08;1.77;;;;;;;20.29;40.49;100706.49;1493328;87;21359;-80
2023/06/04 07:39:07;;;;;;;5.12;2.08;;;;;;;20.37;39.31;100714.86;1499616;87;21426;-80
2023/06/04 07:41:33;;;;;;;11.83;2.25;;;;;;;20.33;37.96;100710.94;1498933;87;21396;-80
2023/06/04 07:44:00;;;;;;;4.28;2.22;;;;;;;20.44;39.99;100709.81;1493828;87;21359;-78
2023/06/04 07:46:26;;;;;;;3.98;2.00;;;;;;;20.51;39.71;100712.49;1502022;86;21418;-80
2023/06/04 07:48:52;;;;;;;8.45;2.62;;;;;;;20.56;39.38;100709.23;1496431;87;21435;-81
2023/06/04 07:51:19;;;;;;;4.65;2.33;;;;;;;20.64;38.97;100715.75;1489034;87;22423;-79
2023/06/04 07:53:45;;;;;;;10.23;2.40;;;;;;;20.61;38.80;100715.64;1498546;87;22339;-80
2023/06/04 07:56:12;;;;;;;5.55;2.70;;;;;;;20.77;39.47;100715.73;1502911;87;21286;-81
2023/06/04 07:58:38;;;;;;;3.65;2.12;;;;;;;20.89;39.08;100726.20;1492038;87;21791;-81
2023/06/04 08:01:04;;;;;;;6.95;2.47;;;;;;;21.01;38.46;100722.35;1486759;86;22372;-80
2023/06/04 08:03:36;;;;;;;4.10;2.35;;;;;;;21.03;39.02;100727.51;1487639;87;21359;-90
2023/06/04 08:06:14;;;;;;;3.47;2.02;;;;;;;21.03;38.71;100725.67;1486185;86;21351;-89
2023/06/04 08:08:45;;;;;;;3.62;2.25;;;;;;;21.11;38.98;100721.91;1489039;87;21543;-87
2023/06/04 08:11:13;;;;;;;8.35;2.50;;;;;;;21.31;39.15;100716.48;1432263;87;22335;-89
2023/06/04 08:13:40;;;;;;;7.35;2.20;;;;;;;21.48;38.94;100721.75;1493526;87;21404;-88
2023/06/04 08:16:10;;;;;;;6.45;3.00;;;;;;;21.54;38.30;100726.80;1494796;86;21441;-88
2023/06/04 08:18:40;;;;;;;6.60;2.62;;;;;;;21.65;38.38;100734.75;1492898;87;22313;-89
2023/06/04 08:21:16;;;;;;;4.80;2.22;;;;;;;21.63;38.30;100730.39;1493408;87;22305;-86
2023/06/04 08:23:38;;;;;;;3.80;2.30;;;;;;;21.82;38.04;100735.40;1544526;87;21285;-88
2023/06/04 08:26:06;;;;;;;10.98;3.22;;;;;;;21.82;37.56;100739.44;1493317;87;21344;-87
2023/06/04 08:28:32;;;;;;;8.78;3.02;;;;;;;21.96;38.28;100724.04;1475790;87;21299;-86
2023/06/04 08:30:58;;;;;;;28.00;3.55;;;;;;;22.16;38.24;100736.59;1492171;87;21352;-88
2023/06/04 08:33:25;;;;;;;10.45;3.33;;;;;;;22.31;38.02;100737.13;1479843;87;21499;-88
2023/06/04 08:35:51;;;;;;;7.37;3.22;;;;;;;22.41;37.96;100733.45;1492899;87;21403;-87
2023/06/04 08:38:17;;;;;;;6.90;2.80;;;;;;;22.63;38.37;100736.59;1496980;87;21358;-87
2023/06/04 08:40:43;;;;;;;11.35;2.75;;;;;;;22.64;37.03;100740.11;1494737;87;22224;-88
2023/06/04 08:43:11;;;;;;;4.67;2.40;;;;;;;22.64;37.03;100740.11;1491301;86;21358;-87
2023/06/04 08:45:42;;;;;;;7.60;2.70;;;;;;;22.49;36.41;100734.51;1414441;87;22062;-88
2023/06/04 08:48:15;;;;;;;3.83;2.58;;;;;;;22.56;37.79;100720.14;1500951;87;21364;-87
2023/06/04 08:50:47;;;;;;;8.55;3.00;;;;;;;22.56;37.79;100720.14;1495416;87;22305;-90
2023/06/04 08:53:15;;;;;;;11.00;4.15;;;;;;;22.85;37.73;100718.15;1480900;87;21382;-87
2023/06/04 08:55:42;;;;;;;6.93;2.97;;;;;;;22.85;37.73;100718.15;1494859;87;22458;-88
2023/06/04 08:58:11;;;;;;;10.43;2.95;;;;;;;23.19;38.17;100734.89;1488992;87;22357;-87
2023/06/04 09:00:37;;;;;;;3.95;2.40;;;;;;;23.29;36.68;100740.59;1494295;87;21366;-87
2023/06/04 09:03:03;;;;;;;9.28;2.90;;;;;;;23.29;36.68;100739.23;1493822;87;21440;-86
2023/06/04 09:05:30;;;;;;;7.53;3.27;;;;;;;23.36;37.17;100734.61;1492534;87;21522;-87
2023/06/04 09:08:03;;;;;;;6.95;3.05;;;;;;;23.52;36.50;100726.94;1485484;87;22437;-89
2023/06/04 09:10:31;;;;;;;5.75;2.37;;;;;;;23.46;36.16;100725.15;1491500;87;21477;-88
2023/06/04 09:13:02;;;;;;;9.65;3.22;;;;;;;23.46;36.82;100721.91;1491713;87;21322;-87
2023/06/04 09:15:28;;;;;;;7.72;3.08;;;;;;;23.65;36.75;100730.31;1580107;87;21175;-88
2023/06/04 09:17:55;;;;;;;7.35;2.65;;;;;;;23.71;36.42;100721.86;1415388;87;21324;-85
2023/06/04 09:20:22;;;;;;;7.67;2.85;;;;;;;23.67;36.27;100727.38;1415675;87;22254;-87
2023/06/04 09:22:49;;;;;;;6.62;3.10;;;;;;;23.81;36.78;100726.19;1454641;87;21470;-87
2023/06/04 09:25:26;;;;;;;7.33;4.72;;;;;;;23.71;35.83;100727.27;1491732;86;21366;-88
2023/06/04 09:28:07;;;;;;;5.17;2.72;;;;;;;23.72;36.04;100727.55;1412741;87;21483;-88
2023/06/04 09:30:33;;;;;;;;;;;;;;;23.83;35.30;100721.38;1502126;86;23236;-86
2023/06/04 09:33:09;;;;;;;6.05;3.33;;;;;;;23.80;35.76;100713.73;1494322;87;20303;-88
2023/06/04 09:35:36;;;;;;;7.05;2.72;;;;;;;24.01;36.16;100716.98;1493064;87;21411;-86
2023/06/04 09:38:06;;;;;;;6.60;3.10;;;;;;;24.19;35.75;100723.69;1493565;86;21323;-85
2023/06/04 09:40:39;;;;;;;11.05;3.58;;;;;;;24.25;35.44;100720.05;1493682;87;21330;-87
2023/06/04 09:43:05;;;;;;;3.95;3.02;;;;;;;24.35;35.32;100718.69;1492852;87;21315;-86
2023/06/04 09:45:35;;;;;;;4.85;3.25;;;;;;;24.48;35.14;100717.14;1493661;87;21359;-89
2023/06/04 09:48:05;;;;;;;7.60;2.50;;;;;;;24.32;34.61;100727.55;1477213;87;21381;-86
2023/06/04 09:50:34;;;;;;;7.92;3.20;;;;;;;24.43;35.03;100726.51;1489616;86;21436;-87
2023/06/04 09:53:02;;;;;;;16.62;4.28;;;;;;;24.62;34.90;100722.64;1490303;87;21293;-87
2023/06/04 09:55:28;;;;;;;7.37;3.22;;;;;;;24.59;32.16;100724.46;1490889;87;21388;-87
2023/06/04 09:58:35;;;;;;;4.45;2.77;;;;;;;24.47;33.34;100724.44;1494638;87;21504;-86
2023/06/04 10:01:05;;;;;;;3.20;2.90;;;;;;;24.56;33.84;100723.58;1492215;87;21322;-85
2023/06/04 10:03:36;;;;;;;5.28;2.60;;;;;;;24.78;33.79;100731.15;1492524;87;21394;-86
2023/06/04 10:06:05;;;;;;;7.00;2.62;;;;;;;24.95;33.23;100730.75;1496317;87;21293;-86
2023/06/04 10:08:33;;;;;;;4.35;3.10;;;;;;;25.10;33.23;100721.61;1494526;87;21477;-87
2023/06/04 10:11:02;;;;;;;11.73;3.58;;;;;;;25.02;32.62;100726.02;1489816;87;21292;-87
2023/06/04 10:13:32;;;;;;;8.35;3.00;;;;;;;25.10;31.59;100724.31;1491296;87;22912;-86
2023/06/04 10:16:01;;;;;;;3.95;3.12;;;;;;;24.90;30.76;100726.55;1491368;87;22354;-87
2023/06/04 10:18:30;;;;;;;4.95;3.12;;;;;;;24.99;32.20;100733.27;1494307;87;22442;-87
2023/06/04 10:20:56;;;;;;;4.33;2.65;;;;;;;25.13;32.31;100729.25;1478107;87;21380;-86
2023/06/04 10:23:24;;;;;;;5.42;2.85;;;;;;;25.31;32.24;100728.85;1491355;87;21374;-86
2023/06/04 10:25:55;;;;;;;6.12;2.60;;;;;;;25.34;32.35;100729.19;1492879;87;22406;-88
2023/06/04 10:28:23;;;;;;;4.75;2.70;;;;;;;25.54;32.57;100728.80;1494898;87;21469;-85
2023/06/04 10:30:50;;;;;;;3.40;2.80;;;;;;;25.76;32.32;100731.70;1491595;87;22327;-87
2023/06/04 10:33:23;;;;;;;8.48;3.12;;;;;;;25.86;32.00;100728.38;1490819;86;22261;-86
2023/06/04 10:35:50;;;;;;;4.55;2.92;;;;;;;25.92;30.84;100726.05;1491001;87;21492;-85
2023/06/04 10:38:21;;;;;;;3.25;2.50;;;;;;;25.62;29.09;100718.95;1492706;86;21299;-87
2023/06/04 10:40:47;;;;;;;3.75;2.80;;;;;;;25.61;30.36;100722.73;1494196;87;22379;-87
2023/06/04 10:43:16;;;;;;;4.62;3.27;;;;;;;25.66;30.44;100720.13;1477731;87;21403;-88
2023/06/04 10:45:42;;;;;;;13.10;2.83;;;;;;;25.82;30.93;100716.36;1490679;87;21367;-86
2023/06/04 10:48:10;;;;;;;4.75;2.70;;;;;;;26.02;31.07;100716.77;1492820;87;21418;-90
2023/06/04 10:50:53;;;;;;;4.00;2.70;;;;;;;26.17;29.94;100717.58;1491080;86;21410;-90
2023/06/04 10:53:19;;;;;;;4.58;3.20;;;;;;;26.25;30.75;100721.25;1494047;87;21488;-87
2023/06/04 10:55:48;;;;;;;5.35;2.60;;;;;;;26.35;30.54;100724.67;1492184;87;21500;-89
2023/06/04 10:58:14;;;;;;;8.28;3.25;;;;;;;26.31;29.84;100724.34;1431011;86;21212;-88
2023/06/04 11:00:49;;;;;;;8.73;2.70;;;;;;;26.15;29.46;100725.13;1509857;87;21315;-89
2023/06/04 11:03:17;;;;;;;4.37;2.40;;;;;;;25.99;29.75;100724.04;1494364;87;21367;-88
2023/06/04 11:05:47;;;;;;;6.80;2.92;;;;;;;25.89;28.92;100718.41;1481177;87;21484;-89
2023/06/04 11:08:14;;;;;;;7.00;2.92;;;;;;;25.72;28.48;100717.50;1491316;87;21560;-88
2023/06/04 11:10:44;;;;;;;8.65;2.95;;;;;;;25.87;30.11;100717.84;1494055;86;22320;-88
2023/06/04 11:13:10;;;;;;;4.62;3.17;;;;;;;26.12;30.34;100716.13;1454281;87;21419;-88
2023/06/04 11:15:49;;;;;;;4.08;2.33;;;;;;;26.41;30.41;100718.80;1489959;87;21352;-87
2023/06/04 11:18:19;;;;;;;3.47;2.50;;;;;;;26.57;28.56;100718.56;1495093;87;21381;-89
2023/06/04 11:20:49;;;;;;;7.60;2.90;;;;;;;26.43;27.64;100719.38;1480072;87;22053;-89
2023/06/04 11:23:17;;;;;;;3.58;2.30;;;;;;;26.51;27.83;100713.05;1580734;87;21323;-87
2023/06/04 11:25:45;;;;;;;6.90;2.58;;;;;;;26.51;24.40;100712.23;1452399;87;21470;-87